sensor_id;sensor_type;location;lat;lon;timestamp;pressure;altitude;pressure_sealevel;temperature;humidity
53715;BME280;39608;55.630;37.864;2023-12-04T00:03:58;98197.34;;;-1.95;71.09
53715;BME280;39608;55.630;37.864;2023-12-04T00:09:02;98193.47;;;-2.09;70.69
53715;BME280;39608;55.630;37.864;2023-12-04T00:14:05;98205.31;;;-1.95;71.12
53715;BME280;39608;55.630;37.864;2023-12-04T00:19:09;98231.81;;;-1.83;70.71
53715;BME280;39608;55.630;37.864;2023-12-04T00:24:13;98255.53;;;-1.54;71.36
53715;BME280;39608;55.630;37.864;2023-12-04T00:29:15;98265.63;;;-1.56;71.77
53715;BME280;39608;55.630;37.864;2023-12-04T00:34:18;98248.03;;;-1.79;71.51
53715;BME280;39608;55.630;37.864;2023-12-04T00:39:22;98259.41;;;-1.84;70.35
53715;BME280;39608;55.630;37.864;2023-12-04T00:44:32;98237.47;;;-1.96;71.55
53715;BME280;39608;55.630;37.864;2023-12-04T00:49:36;98264.66;;;-1.89;70.48
53715;BME280;39608;55.630;37.864;2023-12-04T00:54:45;98279.31;;;-1.86;70.66
53715;BME280;39608;55.630;37.864;2023-12-04T00:59:50;98273.53;;;-2.00;70.99
53715;BME280;39608;55.630;37.864;2023-12-04T01:04:56;98312.94;;;-1.75;70.80
53715;BME280;39608;55.630;37.864;2023-12-04T01:10:03;98315.94;;;-1.72;70.59
53715;BME280;39608;55.630;37.864;2023-12-04T01:15:19;98320.25;;;-1.65;71.69
53715;BME280;39608;55.630;37.864;2023-12-04T01:20:36;98308.91;;;-1.78;70.58
53715;BME280;39608;55.630;37.864;2023-12-04T01:31:27;98302.41;;;-1.70;72.06
53715;BME280;39608;55.630;37.864;2023-12-04T01:37:25;98322.22;;;-1.61;70.36
53715;BME280;39608;55.630;37.864;2023-12-04T01:42:42;98288.09;;;-1.86;69.77
53715;BME280;39608;55.630;37.864;2023-12-04T01:48:11;98283.25;;;-1.89;70.29
53715;BME280;39608;55.630;37.864;2023-12-04T01:53:32;98330.03;;;-1.71;70.78
53715;BME280;39608;55.630;37.864;2023-12-04T01:58:50;98314.19;;;-1.83;70.06
53715;BME280;39608;55.630;37.864;2023-12-04T02:04:40;98322.41;;;-1.84;69.38
53715;BME280;39608;55.630;37.864;2023-12-04T02:10:24;98294.88;;;-2.12;70.57
53715;BME280;39608;55.630;37.864;2023-12-04T02:16:12;98334.72;;;-1.95;70.67
53715;BME280;39608;55.630;37.864;2023-12-04T02:22:18;98368.84;;;-1.87;71.01
53715;BME280;39608;55.630;37.864;2023-12-04T02:33:41;98362.56;;;-2.15;70.45
53715;BME280;39608;55.630;37.864;2023-12-04T02:45:21;98373.56;;;-2.23;70.27
53715;BME280;39608;55.630;37.864;2023-12-04T02:57:01;98393.50;;;-2.37;69.76
53715;BME280;39608;55.630;37.864;2023-12-04T03:02:26;98409.75;;;-2.34;68.81
53715;BME280;39608;55.630;37.864;2023-12-04T03:21:41;98404.94;;;-2.78;70.56
53715;BME280;39608;55.630;37.864;2023-12-04T03:27:18;98466.28;;;-2.50;71.07
53715;BME280;39608;55.630;37.864;2023-12-04T04:20:08;98579.31;;;-2.14;70.03
53715;BME280;39608;55.630;37.864;2023-12-04T04:38:07;98598.41;;;-2.29;70.16
53715;BME280;39608;55.630;37.864;2023-12-04T05:45:12;98697.91;;;-2.55;69.95
53715;BME280;39608;55.630;37.864;2023-12-04T05:50:15;98701.47;;;-2.61;69.64
53715;BME280;39608;55.630;37.864;2023-12-04T05:55:17;98683.31;;;-2.76;69.91
53715;BME280;39608;55.630;37.864;2023-12-04T06:00:21;98711.25;;;-2.73;69.86
53715;BME280;39608;55.630;37.864;2023-12-04T06:05:23;98743.94;;;-2.61;69.72
53715;BME280;39608;55.630;37.864;2023-12-04T06:10:25;98722.44;;;-2.83;70.32
53715;BME280;39608;55.630;37.864;2023-12-04T06:15:31;98760.66;;;-2.61;69.80
53715;BME280;39608;55.630;37.864;2023-12-04T06:20:51;98749.81;;;-2.71;70.14
53715;BME280;39608;55.630;37.864;2023-12-04T06:26:14;98749.94;;;-2.66;69.64
53715;BME280;39608;55.630;37.864;2023-12-04T06:31:59;98773.53;;;-2.46;70.77
53715;BME280;39608;55.630;37.864;2023-12-04T06:37:47;98783.78;;;-2.49;70.23
53715;BME280;39608;55.630;37.864;2023-12-04T06:43:34;98793.81;;;-2.51;70.30
53715;BME280;39608;55.630;37.864;2023-12-04T06:49:40;98742.84;;;-2.84;69.67
53715;BME280;39608;55.630;37.864;2023-12-04T07:26:46;98810.13;;;-2.97;69.86
53715;BME280;39608;55.630;37.864;2023-12-04T07:39:02;98833.50;;;-3.05;69.01
53715;BME280;39608;55.630;37.864;2023-12-04T07:44:08;98859.97;;;-2.99;69.97
53715;BME280;39608;55.630;37.864;2023-12-04T07:49:13;98877.81;;;-3.06;69.38
53715;BME280;39608;55.630;37.864;2023-12-04T07:54:18;98864.84;;;-3.14;69.32
53715;BME280;39608;55.630;37.864;2023-12-04T07:59:21;98886.63;;;-3.12;69.85
53715;BME280;39608;55.630;37.864;2023-12-04T08:04:23;98889.72;;;-3.15;69.73
53715;BME280;39608;55.630;37.864;2023-12-04T08:09:28;98891.38;;;-3.14;69.73
53715;BME280;39608;55.630;37.864;2023-12-04T08:14:32;98894.28;;;-3.04;70.22
53715;BME280;39608;55.630;37.864;2023-12-04T08:19:34;98907.28;;;-2.96;69.96
53715;BME280;39608;55.630;37.864;2023-12-04T08:24:41;98907.44;;;-2.90;70.26
53715;BME280;39608;55.630;37.864;2023-12-04T08:29:45;98914.56;;;-2.91;69.96
53715;BME280;39608;55.630;37.864;2023-12-04T08:34:48;98886.63;;;-3.12;70.02
53715;BME280;39608;55.630;37.864;2023-12-04T08:39:50;98891.34;;;-2.77;69.98
53715;BME280;39608;55.630;37.864;2023-12-04T08:44:53;98941.56;;;-2.76;70.37
53715;BME280;39608;55.630;37.864;2023-12-04T08:49:55;98930.78;;;-2.81;70.34
53715;BME280;39608;55.630;37.864;2023-12-04T08:54:58;98927.53;;;-2.83;69.97
53715;BME280;39608;55.630;37.864;2023-12-04T09:00:01;98940.16;;;-2.78;69.47
53715;BME280;39608;55.630;37.864;2023-12-04T09:05:06;98950.88;;;-2.73;70.33
53715;BME280;39608;55.630;37.864;2023-12-04T09:10:09;98927.53;;;-2.83;69.74
53715;BME280;39608;55.630;37.864;2023-12-04T09:15:12;98946.41;;;-2.72;70.93
53715;BME280;39608;55.630;37.864;2023-12-04T09:20:15;98953.53;;;-2.73;69.95
53715;BME280;39608;55.630;37.864;2023-12-04T09:25:18;98950.47;;;-2.70;69.35
53715;BME280;39608;55.630;37.864;2023-12-04T09:30:22;98957.88;;;-2.42;69.69
53715;BME280;39608;55.630;37.864;2023-12-04T09:35:24;98972.69;;;-2.34;69.91
53715;BME280;39608;55.630;37.864;2023-12-04T09:40:26;98978.75;;;-2.45;69.09
53715;BME280;39608;55.630;37.864;2023-12-04T09:45:32;98980.84;;;-2.47;69.19
53715;BME280;39608;55.630;37.864;2023-12-04T09:50:34;98987.97;;;-2.48;69.14
53715;BME280;39608;55.630;37.864;2023-12-04T09:55:36;98988.34;;;-2.44;69.72
53715;BME280;39608;55.630;37.864;2023-12-04T10:00:41;98991.38;;;-2.41;69.12
53715;BME280;39608;55.630;37.864;2023-12-04T10:05:44;98994.88;;;-2.28;69.33
53715;BME280;39608;55.630;37.864;2023-12-04T10:10:47;99023.72;;;-2.13;69.09
53715;BME280;39608;55.630;37.864;2023-12-04T10:15:51;99026.09;;;-2.24;69.15
53715;BME280;39608;55.630;37.864;2023-12-04T10:21:00;99031.56;;;-2.37;69.25
53715;BME280;39608;55.630;37.864;2023-12-04T10:26:07;99058.41;;;-2.45;69.69
53715;BME280;39608;55.630;37.864;2023-12-04T10:31:10;99064.44;;;-2.56;69.90
53715;BME280;39608;55.630;37.864;2023-12-04T10:36:13;99061.63;;;-2.62;69.25
53715;BME280;39608;55.630;37.864;2023-12-04T10:41:18;99056.53;;;-2.63;69.47
53715;BME280;39608;55.630;37.864;2023-12-04T10:46:21;99076.84;;;-2.50;69.50
53715;BME280;39608;55.630;37.864;2023-12-04T10:51:28;99083.13;;;-2.45;70.01
53715;BME280;39608;55.630;37.864;2023-12-04T10:56:35;99070.88;;;-2.46;70.16
53715;BME280;39608;55.630;37.864;2023-12-04T11:01:42;99076.63;;;-2.49;70.25
53715;BME280;39608;55.630;37.864;2023-12-04T11:06:46;99089.75;;;-2.35;70.63
53715;BME280;39608;55.630;37.864;2023-12-04T11:11:56;99089.84;;;-2.67;69.56
53715;BME280;39608;55.630;37.864;2023-12-04T11:17:03;99084.63;;;-2.74;70.03
53715;BME280;39608;55.630;37.864;2023-12-04T11:22:11;99101.88;;;-2.65;70.27
53715;BME280;39608;55.630;37.864;2023-12-04T11:27:21;99082.13;;;-2.69;69.80
53715;BME280;39608;55.630;37.864;2023-12-04T11:32:31;99101.25;;;-2.60;70.20
53715;BME280;39608;55.630;37.864;2023-12-04T11:37:38;99129.34;;;-2.52;70.03
53715;BME280;39608;55.630;37.864;2023-12-04T11:42:43;99105.28;;;-2.58;69.97
53715;BME280;39608;55.630;37.864;2023-12-04T11:47:57;99124.34;;;-2.42;70.94
53715;BME280;39608;55.630;37.864;2023-12-04T11:53:02;99126.47;;;-2.51;69.81
53715;BME280;39608;55.630;37.864;2023-12-04T11:58:09;99124.03;;;-2.52;70.00
53715;BME280;39608;55.630;37.864;2023-12-04T12:03:17;99145.16;;;-2.39;70.44
53715;BME280;39608;55.630;37.864;2023-12-04T12:08:20;99142.13;;;-2.43;70.23
53715;BME280;39608;55.630;37.864;2023-12-04T12:13:23;99153.13;;;-2.39;70.12
53715;BME280;39608;55.630;37.864;2023-12-04T12:18:40;99165.97;;;-2.36;70.09
53715;BME280;39608;55.630;37.864;2023-12-04T12:23:45;99160.94;;;-2.44;70.25
53715;BME280;39608;55.630;37.864;2023-12-04T12:28:49;99176.41;;;-2.41;70.29
53715;BME280;39608;55.630;37.864;2023-12-04T12:33:58;99186.03;;;-2.40;69.90
53715;BME280;39608;55.630;37.864;2023-12-04T12:39:07;99178.94;;;-2.46;70.34
53715;BME280;39608;55.630;37.864;2023-12-04T12:44:14;99160.41;;;-2.53;70.68
53715;BME280;39608;55.630;37.864;2023-12-04T13:09:13;99194.25;;;-2.48;70.58
53715;BME280;39608;55.630;37.864;2023-12-04T13:14:31;99194.25;;;-2.48;70.74
53715;BME280;39608;55.630;37.864;2023-12-04T13:19:59;99189.03;;;-2.62;70.74
53715;BME280;39608;55.630;37.864;2023-12-04T13:31:37;99220.72;;;-2.35;71.04
53715;BME280;39608;55.630;37.864;2023-12-04T13:43:11;99223.63;;;-2.43;69.88
53715;BME280;39608;55.630;37.864;2023-12-04T13:49:01;99238.69;;;-2.37;70.62
53715;BME280;39608;55.630;37.864;2023-12-04T14:00:45;99245.31;;;-2.46;70.63
53715;BME280;39608;55.630;37.864;2023-12-04T14:11:09;99240.53;;;-2.63;70.75
53715;BME280;39608;55.630;37.864;2023-12-04T14:27:14;99269.13;;;-2.65;70.64
53715;BME280;39608;55.630;37.864;2023-12-04T14:32:16;99263.81;;;-2.65;70.30
53715;BME280;39608;55.630;37.864;2023-12-04T14:37:42;99259.38;;;-2.71;70.97
53715;BME280;39608;55.630;37.864;2023-12-04T14:43:07;99284.28;;;-2.72;70.33
53715;BME280;39608;55.630;37.864;2023-12-04T15:04:50;99293.50;;;-2.81;70.23
53715;BME280;39608;55.630;37.864;2023-12-04T15:10:14;99296.34;;;-2.76;70.74
53715;BME280;39608;55.630;37.864;2023-12-04T15:21:20;99301.53;;;-2.88;70.04
53715;BME280;39608;55.630;37.864;2023-12-04T15:37:29;99320.50;;;-2.91;70.63
53715;BME280;39608;55.630;37.864;2023-12-04T15:53:56;99325.09;;;-3.12;70.04
53715;BME280;39608;55.630;37.864;2023-12-04T15:58:58;99333.03;;;-3.12;69.91
53715;BME280;39608;55.630;37.864;2023-12-04T16:15:11;99334.91;;;-3.19;70.14
53715;BME280;39608;55.630;37.864;2023-12-04T16:20:20;99355.84;;;-3.04;69.96
53715;BME280;39608;55.630;37.864;2023-12-04T16:25:22;99355.84;;;-3.04;70.79
53715;BME280;39608;55.630;37.864;2023-12-04T16:30:27;99362.59;;;-3.01;69.97
53715;BME280;39608;55.630;37.864;2023-12-04T16:35:30;99367.28;;;-3.03;70.19
53715;BME280;39608;55.630;37.864;2023-12-04T16:40:32;99357.69;;;-3.04;70.16
53715;BME280;39608;55.630;37.864;2023-12-04T16:45:35;99366.09;;;-3.07;70.25
53715;BME280;39608;55.630;37.864;2023-12-04T16:50:38;99368.75;;;-3.14;69.76
53715;BME280;39608;55.630;37.864;2023-12-04T16:55:40;99382.00;;;-3.14;69.92
53715;BME280;39608;55.630;37.864;2023-12-04T17:00:43;99384.03;;;-3.16;70.33
53715;BME280;39608;55.630;37.864;2023-12-04T17:05:45;99394.69;;;-3.23;69.98
53715;BME280;39608;55.630;37.864;2023-12-04T17:10:47;99394.69;;;-3.30;69.96
53715;BME280;39608;55.630;37.864;2023-12-04T17:15:51;99398.78;;;-3.27;70.09
53715;BME280;39608;55.630;37.864;2023-12-04T17:20:53;99403.47;;;-3.29;70.03
53715;BME280;39608;55.630;37.864;2023-12-04T17:25:56;99402.28;;;-3.40;69.79
53715;BME280;39608;55.630;37.864;2023-12-04T17:31:01;99375.97;;;-3.48;70.01
53715;BME280;39608;55.630;37.864;2023-12-04T17:36:07;99388.81;;;-3.45;70.63
53715;BME280;39608;55.630;37.864;2023-12-04T17:41:14;99410.63;;;-3.36;70.19
53715;BME280;39608;55.630;37.864;2023-12-04T17:46:21;99418.78;;;-3.31;70.30
53715;BME280;39608;55.630;37.864;2023-12-04T17:51:23;99402.06;;;-3.38;70.09
53715;BME280;39608;55.630;37.864;2023-12-04T17:56:26;99421.81;;;-3.28;69.75
53715;BME280;39608;55.630;37.864;2023-12-04T18:01:31;99417.56;;;-3.29;70.07
53715;BME280;39608;55.630;37.864;2023-12-04T18:06:33;99426.09;;;-3.33;69.75
53715;BME280;39608;55.630;37.864;2023-12-04T18:11:38;99433.03;;;-3.19;70.56
53715;BME280;39608;55.630;37.864;2023-12-04T18:16:44;99441.59;;;-3.10;69.99
53715;BME280;39608;55.630;37.864;2023-12-04T18:21:46;99447.91;;;-3.11;69.83
53715;BME280;39608;55.630;37.864;2023-12-04T18:26:49;99443.44;;;-3.17;69.85
53715;BME280;39608;55.630;37.864;2023-12-04T18:31:53;99435.91;;;-3.34;69.70
53715;BME280;39608;55.630;37.864;2023-12-04T18:36:57;99461.19;;;-3.31;69.60
53715;BME280;39608;55.630;37.864;2023-12-04T18:42:03;99461.78;;;-3.36;69.86
53715;BME280;39608;55.630;37.864;2023-12-04T18:47:10;99451.59;;;-3.46;69.44
53715;BME280;39608;55.630;37.864;2023-12-04T18:52:16;99449.56;;;-3.44;70.11
53715;BME280;39608;55.630;37.864;2023-12-04T18:57:18;99454.06;;;-3.57;69.17
53715;BME280;39608;55.630;37.864;2023-12-04T19:02:22;99463.22;;;-3.67;69.19
53715;BME280;39608;55.630;37.864;2023-12-04T19:07:24;99473.00;;;-3.67;68.51
53715;BME280;39608;55.630;37.864;2023-12-04T19:12:29;99469.34;;;-3.66;69.47
53715;BME280;39608;55.630;37.864;2023-12-04T19:17:33;99468.13;;;-3.70;69.36
53715;BME280;39608;55.630;37.864;2023-12-04T19:22:36;99461.78;;;-3.83;69.55
53715;BME280;39608;55.630;37.864;2023-12-04T19:27:41;99475.84;;;-3.89;69.48
